Nearby METAR Reports

 

KBFI - Seattle/Boeing, Washington, USA
Distance from station: S 10mi, 16km
Updated: Fri, 20-Sep-2019 9:53pm PDT
Clear
Clear
 Wind from SE
Wind: SE 3 mph , 6 km/h
Temperature: 61°F , 16°C
Dew Point: 54°F , 12°C
Humidity: 77%
Barometer: 30.13 inHg , 1020.3 hPa
Clouds: Clear
Visibility: 10 miles , 16 km
2019/09/21 04:53 KBFI 210453Z 14003KT 10SM CLR 16/12 A3013 RMK AO2 SLP201 T01560122
KRNT - Renton, Washington, USA
Distance from station: SSE 14mi, 23km
Updated: Fri, 20-Sep-2019 9:53pm PDT
Clear
Clear
 Wind from S
Wind: S 3 mph , 6 km/h
Temperature: 61°F , 16°C
Dew Point: 55°F , 13°C
Humidity: 83%
Barometer: 30.12 inHg , 1020 hPa
Clouds: Clear
Visibility: 10 miles , 16 km
2019/09/21 04:53 KRNT 210453Z AUTO 17003KT 10SM CLR 16/13 A3012 RMK AO2 SLP205 T01560128
 
KPAE - Everett, Washington, USA
Distance from station: N 15mi, 25km
Updated: Fri, 20-Sep-2019 9:53pm PDT
Clear
Clear
 Wind from ESE
Wind: ESE 3 mph , 6 km/h
Temperature: 61°F , 16°C
Dew Point: 54°F , 12°C
Humidity: 77%
Barometer: 30.14 inHg , 1020.7 hPa
Clouds: Clear
Visibility: 10 miles , 16 km
2019/09/21 04:53 KPAE 210453Z AUTO 11003KT 10SM CLR 16/12 A3014 RMK AO2 SLP205 T01560117
KSEA - Seattle/Metro, Washington, USA
Distance from station: S 17mi, 27km
Updated: Fri, 20-Sep-2019 9:53pm PDT
Partly cloudy
Partly cloudy
 Wind from ESE
Wind: ESE 7 mph , 11 km/h
Temperature: 63°F , 17°C
Dew Point: 54°F , 12°C
Humidity: 73%
Barometer: 30.13 inHg , 1020.3 hPa
Clouds: Partly cloudy
Visibility: 10 miles , 16 km
Cloud details: Partly cloudy 6000 ft
2019/09/21 04:53 KSEA 210453Z 12006KT 10SM SCT060 17/12 A3013 RMK AO2 SLP208 T01720122
 
KPWT - Bremerton Ntnl, Washington, USA
Distance from station: SW 24mi, 39km
Updated: Fri, 20-Sep-2019 9:56pm PDT
Partly cloudy
Partly cloudy
 Wind from calm
Wind: Calm
Temperature: 55°F , 13°C
Dew Point: 54°F , 12°C
Humidity: 94%
Barometer: 30.13 inHg , 1020.3 hPa
Clouds: Partly cloudy
Visibility: 10 miles , 16 km
Cloud details: Partly cloudy 4100 ft
2019/09/21 04:56 KPWT 210456Z AUTO 00000KT 10SM SCT041 13/12 A3013 RMK AO2 SLP220 T01330122
KTIW - Tacoma, Washington, USA
Distance from station: SSW 32mi, 52km
Updated: Fri, 20-Sep-2019 9:53pm PDT
Partly cloudy
Partly cloudy
 Wind from calm
Wind: Calm
Temperature: 61°F , 16°C
Dew Point: 54°F , 12°C
Humidity: 77%
Barometer: 30.14 inHg , 1020.7 hPa
Clouds: Partly cloudy
Visibility: 10 miles , 16 km
Cloud details: Partly cloudy 3300 ft
2019/09/21 04:53 KTIW 210453Z AUTO 00000KT 10SM SCT033 16/12 A3014 RMK AO2 SLP205 T01560122
 
KAWO - Arlington Muni, Washington, USA
Distance from station: N 33mi, 54km
Updated: Fri, 20-Sep-2019 9:56pm PDT
Few Clouds
Few Clouds
 Wind from N
Wind: N 6 mph , 9 km/h
Temperature: 54°F , 12°C
Dew Point: 54°F , 12°C
Humidity: 100%
Barometer: 30.14 inHg , 1020.7 hPa
Clouds: Few Clouds
Visibility: 10 miles , 16 km
Cloud details: Few Clouds 3200 ft
2019/09/21 04:56 KAWO 210456Z AUTO 36005KT 10SM FEW032 12/12 A3014 RMK AO2 SLP209 T01220117 PNO $
KTCM - Tacoma/Mc Chord, Washington, USA
Distance from station: S 41mi, 65km
Updated: Fri, 20-Sep-2019 8:58pm PDT
NOT Current
Mostly cloudy
Mostly cloudy
 Wind from calm
Wind: Calm
Temperature: 59°F , 15°C
Dew Point: 59°F , 15°C
Humidity: 100%
Barometer: 30.12 inHg , 1020 hPa
Clouds: Mostly cloudy
Visibility: 10 miles , 16 km
Cloud details: Mostly cloudy 3200 ft
2019/09/21 03:58 KTCM 210358Z AUTO 00000KT 10SM BKN032 15/15 A3012 RMK AO2 SLP203 T01490147 $
 
KPLU - Puyallup/Thun, Washington, USA
Distance from station: S 41mi, 66km
Updated: Fri, 20-Sep-2019 10:35pm PDT
Overcast
Overcast
 Wind from calm
Wind: Calm
Temperature: 57°F , 14°C
Dew Point: 57°F , 14°C
Humidity: 100%
Barometer: 30.14 inHg , 1020.7 hPa
Clouds: Overcast
Visibility: 10 miles , 16 km
Cloud details: Mostly cloudy 3000 ft
Overcast 3900 ft
2019/09/21 05:35 KPLU 210535Z AUTO 00000KT 10SM BKN030 OVC039 14/14 A3014 RMK AO2
KGRF - Fort Lewis/Gray, Washington, USA
Distance from station: SSW 45mi, 72km
Updated: Fri, 20-Sep-2019 9:58pm PDT
Mist, Overcast
Mist, Overcast
 Wind from W
Wind: W 7 mph , 11 km/h
Temperature: 63°F , 17°C
Dew Point: 63°F , 17°C
Humidity: 100%
Barometer: 30.13 inHg , 1020.3 hPa
Summary: Mist
Clouds: Overcast
Visibility: 6 miles , 10 km
Cloud details: Overcast 3000 ft
2019/09/21 04:58 KGRF 210458Z AUTO 27006KT 6SM BR OVC030 17/17 A3013 RMK AO2 SLP206 T01670165 $
 
KNUW - Whidbey Is. Nas, Washington, USA
Distance from station: NNW 48mi, 77km
Updated: Fri, 20-Sep-2019 9:56pm PDT
Mostly cloudy
Mostly cloudy
 Wind from ESE
Wind: ESE 6 mph , 9 km/h
Temperature: 59°F , 15°C
Dew Point: 52°F , 11°C
Humidity: 77%
Barometer: 30.16 inHg , 1021.3 hPa
Clouds: Mostly cloudy
Visibility: 10 miles , 16 km
Cloud details: Few Clouds 3000 ft
Partly cloudy 4500 ft
Mostly cloudy 12000 ft
2019/09/21 04:56 KNUW 210456Z 11005KT 10SM FEW030 SCT045 BKN120 15/11 A3016 RMK AO2 SLP213 T01500111
KSHN - Shelton, Washington, USA
Distance from station: SW 50mi, 80km
Updated: Fri, 20-Sep-2019 9:53pm PDT
Clear
Clear
 Wind from SW
Wind: SW 8 mph , 13 km/h
Temperature: 59°F , 15°C
Dew Point: 55°F , 13°C
Humidity: 88%
Barometer: 30.11 inHg , 1019.6 hPa
Clouds: Clear
Visibility: 10 miles , 16 km
2019/09/21 04:53 KSHN 210453Z AUTO 23007KT 10SM CLR 15/13 A3011 RMK AO2 SLP196 T01500128